sensor_id;sensor_type;location;lat;lon;timestamp;temperature;humidity
16736;DHT22;17990;49.548;9.730;2023-12-29T00:00:10;9.30;99.90
16736;DHT22;17990;49.548;9.730;2023-12-29T00:02:37;9.30;99.90
16736;DHT22;17990;49.548;9.730;2023-12-29T00:05:04;9.30;99.90
16736;DHT22;17990;49.548;9.730;2023-12-29T00:07:33;9.30;99.90
16736;DHT22;17990;49.548;9.730;2023-12-29T00:10:00;9.40;99.90
16736;DHT22;17990;49.548;9.730;2023-12-29T00:12:26;9.40;99.90
16736;DHT22;17990;49.548;9.730;2023-12-29T00:14:53;9.40;99.90
16736;DHT22;17990;49.548;9.730;2023-12-29T00:17:20;9.40;99.90
16736;DHT22;17990;49.548;9.730;2023-12-29T00:19:46;9.40;99.90
16736;DHT22;17990;49.548;9.730;2023-12-29T00:22:13;9.40;99.90
16736;DHT22;17990;49.548;9.730;2023-12-29T00:24:41;9.40;99.90
16736;DHT22;17990;49.548;9.730;2023-12-29T00:27:08;9.40;99.90
16736;DHT22;17990;49.548;9.730;2023-12-29T00:29:34;9.40;99.90
16736;DHT22;17990;49.548;9.730;2023-12-29T00:32:01;9.40;99.90
16736;DHT22;17990;49.548;9.730;2023-12-29T00:34:28;9.40;99.90
16736;DHT22;17990;49.548;9.730;2023-12-29T00:36:55;9.40;99.90
16736;DHT22;17990;49.548;9.730;2023-12-29T00:39:22;9.40;99.90
16736;DHT22;17990;49.548;9.730;2023-12-29T00:41:55;9.40;99.90
16736;DHT22;17990;49.548;9.730;2023-12-29T00:44:22;9.40;99.90
16736;DHT22;17990;49.548;9.730;2023-12-29T00:46:49;9.40;99.90
16736;DHT22;17990;49.548;9.730;2023-12-29T00:49:16;9.40;99.90
16736;DHT22;17990;49.548;9.730;2023-12-29T00:51:43;9.40;99.90
16736;DHT22;17990;49.548;9.730;2023-12-29T00:54:10;9.40;99.90
16736;DHT22;17990;49.548;9.730;2023-12-29T00:56:36;9.40;99.90
16736;DHT22;17990;49.548;9.730;2023-12-29T00:59:05;9.40;99.90
16736;DHT22;17990;49.548;9.730;2023-12-29T01:01:33;9.40;99.90
16736;DHT22;17990;49.548;9.730;2023-12-29T01:04:00;9.40;99.90
16736;DHT22;17990;49.548;9.730;2023-12-29T01:06:27;9.40;99.90
16736;DHT22;17990;49.548;9.730;2023-12-29T01:08:53;9.40;99.90
16736;DHT22;17990;49.548;9.730;2023-12-29T01:11:20;9.40;99.90
16736;DHT22;17990;49.548;9.730;2023-12-29T01:13:47;9.40;99.90
16736;DHT22;17990;49.548;9.730;2023-12-29T01:16:15;9.40;99.90
16736;DHT22;17990;49.548;9.730;2023-12-29T01:18:41;9.40;99.90
16736;DHT22;17990;49.548;9.730;2023-12-29T01:21:08;9.40;99.90
16736;DHT22;17990;49.548;9.730;2023-12-29T01:23:35;9.50;99.90
16736;DHT22;17990;49.548;9.730;2023-12-29T01:26:01;9.50;99.90
16736;DHT22;17990;49.548;9.730;2023-12-29T01:28:28;9.50;99.90
16736;DHT22;17990;49.548;9.730;2023-12-29T01:30:55;9.50;99.90
16736;DHT22;17990;49.548;9.730;2023-12-29T01:33:23;9.50;99.90
16736;DHT22;17990;49.548;9.730;2023-12-29T01:35:49;9.50;99.90
16736;DHT22;17990;49.548;9.730;2023-12-29T01:38:16;9.60;99.90
16736;DHT22;17990;49.548;9.730;2023-12-29T01:40:43;9.60;99.90
16736;DHT22;17990;49.548;9.730;2023-12-29T01:43:11;9.60;99.90
16736;DHT22;17990;49.548;9.730;2023-12-29T01:45:37;9.70;99.90
16736;DHT22;17990;49.548;9.730;2023-12-29T01:48:05;9.70;99.90
16736;DHT22;17990;49.548;9.730;2023-12-29T01:50:34;9.70;99.90
16736;DHT22;17990;49.548;9.730;2023-12-29T01:53:01;9.70;99.90
16736;DHT22;17990;49.548;9.730;2023-12-29T01:55:30;9.70;99.90
16736;DHT22;17990;49.548;9.730;2023-12-29T01:57:57;9.70;99.90
16736;DHT22;17990;49.548;9.730;2023-12-29T02:00:25;9.70;99.90
16736;DHT22;17990;49.548;9.730;2023-12-29T02:02:52;9.70;99.90
16736;DHT22;17990;49.548;9.730;2023-12-29T02:05:20;9.70;99.90
16736;DHT22;17990;49.548;9.730;2023-12-29T02:07:51;9.70;99.90
16736;DHT22;17990;49.548;9.730;2023-12-29T02:10:18;9.70;99.90
16736;DHT22;17990;49.548;9.730;2023-12-29T02:12:47;9.70;99.90
16736;DHT22;17990;49.548;9.730;2023-12-29T02:15:14;9.70;99.90
16736;DHT22;17990;49.548;9.730;2023-12-29T02:17:45;9.70;99.90
16736;DHT22;17990;49.548;9.730;2023-12-29T02:20:12;9.70;99.90
16736;DHT22;17990;49.548;9.730;2023-12-29T02:22:39;9.70;99.90
16736;DHT22;17990;49.548;9.730;2023-12-29T02:25:08;9.70;99.90
16736;DHT22;17990;49.548;9.730;2023-12-29T02:27:43;9.70;99.90
16736;DHT22;17990;49.548;9.730;2023-12-29T02:30:18;9.70;99.90
16736;DHT22;17990;49.548;9.730;2023-12-29T02:32:48;9.70;99.90
16736;DHT22;17990;49.548;9.730;2023-12-29T02:35:20;9.70;99.90
16736;DHT22;17990;49.548;9.730;2023-12-29T02:37:48;9.70;99.90
16736;DHT22;17990;49.548;9.730;2023-12-29T02:40:16;9.60;99.90
16736;DHT22;17990;49.548;9.730;2023-12-29T02:42:46;9.70;99.90
16736;DHT22;17990;49.548;9.730;2023-12-29T02:45:14;9.70;99.90
16736;DHT22;17990;49.548;9.730;2023-12-29T02:47:41;9.60;99.90
16736;DHT22;17990;49.548;9.730;2023-12-29T02:50:08;9.50;99.90
16736;DHT22;17990;49.548;9.730;2023-12-29T02:52:35;9.50;99.90
16736;DHT22;17990;49.548;9.730;2023-12-29T02:55:02;9.50;99.90
16736;DHT22;17990;49.548;9.730;2023-12-29T02:57:30;9.50;99.90
16736;DHT22;17990;49.548;9.730;2023-12-29T02:59:57;9.50;99.90
16736;DHT22;17990;49.548;9.730;2023-12-29T03:02:24;9.50;99.90
16736;DHT22;17990;49.548;9.730;2023-12-29T03:04:51;9.40;99.90
16736;DHT22;17990;49.548;9.730;2023-12-29T03:07:17;9.30;99.90
16736;DHT22;17990;49.548;9.730;2023-12-29T03:09:44;9.30;99.90
16736;DHT22;17990;49.548;9.730;2023-12-29T03:12:11;9.20;99.90
16736;DHT22;17990;49.548;9.730;2023-12-29T03:14:38;9.20;99.90
16736;DHT22;17990;49.548;9.730;2023-12-29T03:17:05;9.20;99.90
16736;DHT22;17990;49.548;9.730;2023-12-29T03:19:32;9.30;99.90
16736;DHT22;17990;49.548;9.730;2023-12-29T03:21:58;9.20;99.90
16736;DHT22;17990;49.548;9.730;2023-12-29T03:24:25;9.30;99.90
16736;DHT22;17990;49.548;9.730;2023-12-29T03:26:52;9.30;99.90
16736;DHT22;17990;49.548;9.730;2023-12-29T03:29:19;9.30;99.90
16736;DHT22;17990;49.548;9.730;2023-12-29T03:31:47;9.30;99.90
16736;DHT22;17990;49.548;9.730;2023-12-29T03:34:13;9.20;99.90
16736;DHT22;17990;49.548;9.730;2023-12-29T03:36:40;9.20;99.90
16736;DHT22;17990;49.548;9.730;2023-12-29T03:39:07;9.30;99.90
16736;DHT22;17990;49.548;9.730;2023-12-29T03:41:33;9.30;99.90
16736;DHT22;17990;49.548;9.730;2023-12-29T03:44:00;9.40;99.90
16736;DHT22;17990;49.548;9.730;2023-12-29T03:46:27;9.40;99.90
16736;DHT22;17990;49.548;9.730;2023-12-29T03:48:55;9.30;99.90
16736;DHT22;17990;49.548;9.730;2023-12-29T03:51:21;9.40;99.90
16736;DHT22;17990;49.548;9.730;2023-12-29T03:53:48;9.40;99.90
16736;DHT22;17990;49.548;9.730;2023-12-29T03:56:16;9.40;99.90
16736;DHT22;17990;49.548;9.730;2023-12-29T03:58:43;9.50;99.90
16736;DHT22;17990;49.548;9.730;2023-12-29T04:01:10;9.50;99.90
16736;DHT22;17990;49.548;9.730;2023-12-29T04:03:37;9.50;99.90
16736;DHT22;17990;49.548;9.730;2023-12-29T04:06:05;9.50;99.90
16736;DHT22;17990;49.548;9.730;2023-12-29T04:08:32;9.50;99.90
16736;DHT22;17990;49.548;9.730;2023-12-29T04:10:59;9.60;99.90
16736;DHT22;17990;49.548;9.730;2023-12-29T04:13:26;9.60;99.90
16736;DHT22;17990;49.548;9.730;2023-12-29T04:15:53;9.60;99.90
16736;DHT22;17990;49.548;9.730;2023-12-29T04:18:21;9.60;99.90
16736;DHT22;17990;49.548;9.730;2023-12-29T04:20:48;9.50;99.90
16736;DHT22;17990;49.548;9.730;2023-12-29T04:23:16;9.50;99.90
16736;DHT22;17990;49.548;9.730;2023-12-29T04:25:43;9.50;99.90
16736;DHT22;17990;49.548;9.730;2023-12-29T04:28:10;9.50;99.90
16736;DHT22;17990;49.548;9.730;2023-12-29T04:30:36;9.50;99.90
16736;DHT22;17990;49.548;9.730;2023-12-29T04:33:03;9.60;99.90
16736;DHT22;17990;49.548;9.730;2023-12-29T04:35:30;9.50;99.90
16736;DHT22;17990;49.548;9.730;2023-12-29T04:37:57;9.50;99.90
16736;DHT22;17990;49.548;9.730;2023-12-29T04:40:25;9.50;99.90
16736;DHT22;17990;49.548;9.730;2023-12-29T04:42:51;9.50;99.90
16736;DHT22;17990;49.548;9.730;2023-12-29T04:45:18;9.50;99.90
16736;DHT22;17990;49.548;9.730;2023-12-29T04:47:45;9.40;99.90
16736;DHT22;17990;49.548;9.730;2023-12-29T04:50:12;9.40;99.90
16736;DHT22;17990;49.548;9.730;2023-12-29T04:52:39;9.30;99.90
16736;DHT22;17990;49.548;9.730;2023-12-29T04:55:06;9.30;99.90
16736;DHT22;17990;49.548;9.730;2023-12-29T04:57:34;9.30;99.90
16736;DHT22;17990;49.548;9.730;2023-12-29T05:00:01;9.30;99.90
16736;DHT22;17990;49.548;9.730;2023-12-29T05:02:28;9.30;99.90
16736;DHT22;17990;49.548;9.730;2023-12-29T05:04:54;9.30;99.90
16736;DHT22;17990;49.548;9.730;2023-12-29T05:07:23;9.30;99.90
16736;DHT22;17990;49.548;9.730;2023-12-29T05:09:50;9.20;99.90
16736;DHT22;17990;49.548;9.730;2023-12-29T05:12:16;9.20;99.90
16736;DHT22;17990;49.548;9.730;2023-12-29T05:14:45;9.10;99.90
16736;DHT22;17990;49.548;9.730;2023-12-29T05:17:11;9.20;99.90
16736;DHT22;17990;49.548;9.730;2023-12-29T05:19:38;9.20;99.90
16736;DHT22;17990;49.548;9.730;2023-12-29T05:22:05;9.10;99.90
16736;DHT22;17990;49.548;9.730;2023-12-29T05:24:31;9.00;99.90
16736;DHT22;17990;49.548;9.730;2023-12-29T05:26:58;8.90;99.90
16736;DHT22;17990;49.548;9.730;2023-12-29T05:29:25;8.80;99.90
16736;DHT22;17990;49.548;9.730;2023-12-29T05:31:53;8.80;99.90
16736;DHT22;17990;49.548;9.730;2023-12-29T05:34:20;8.80;99.90
16736;DHT22;17990;49.548;9.730;2023-12-29T05:36:46;8.80;99.90
16736;DHT22;17990;49.548;9.730;2023-12-29T05:39:13;8.80;99.90
16736;DHT22;17990;49.548;9.730;2023-12-29T05:41:40;8.80;99.90
16736;DHT22;17990;49.548;9.730;2023-12-29T05:44:07;8.80;99.90
16736;DHT22;17990;49.548;9.730;2023-12-29T05:46:33;8.80;99.90
16736;DHT22;17990;49.548;9.730;2023-12-29T05:49:01;8.70;99.90
16736;DHT22;17990;49.548;9.730;2023-12-29T05:51:28;8.60;99.90
16736;DHT22;17990;49.548;9.730;2023-12-29T05:53:55;8.60;99.90
16736;DHT22;17990;49.548;9.730;2023-12-29T05:56:21;8.60;99.90
16736;DHT22;17990;49.548;9.730;2023-12-29T05:58:48;8.60;99.90
16736;DHT22;17990;49.548;9.730;2023-12-29T06:01:15;8.60;99.90
16736;DHT22;17990;49.548;9.730;2023-12-29T06:03:42;8.50;99.90
16736;DHT22;17990;49.548;9.730;2023-12-29T06:06:10;8.50;99.90
16736;DHT22;17990;49.548;9.730;2023-12-29T06:08:37;8.50;99.90
16736;DHT22;17990;49.548;9.730;2023-12-29T06:11:03;8.50;99.90
16736;DHT22;17990;49.548;9.730;2023-12-29T06:13:30;8.50;99.90
16736;DHT22;17990;49.548;9.730;2023-12-29T06:15:57;8.60;99.90
16736;DHT22;17990;49.548;9.730;2023-12-29T06:18:24;8.70;99.90
16736;DHT22;17990;49.548;9.730;2023-12-29T06:20:51;8.70;99.90
16736;DHT22;17990;49.548;9.730;2023-12-29T06:23:19;8.80;99.90
16736;DHT22;17990;49.548;9.730;2023-12-29T06:25:45;8.90;99.90
16736;DHT22;17990;49.548;9.730;2023-12-29T06:28:12;9.00;99.90
16736;DHT22;17990;49.548;9.730;2023-12-29T06:30:39;9.00;99.90
16736;DHT22;17990;49.548;9.730;2023-12-29T06:33:06;9.00;99.90
16736;DHT22;17990;49.548;9.730;2023-12-29T06:35:33;9.00;99.90
16736;DHT22;17990;49.548;9.730;2023-12-29T06:37:59;9.00;99.90
16736;DHT22;17990;49.548;9.730;2023-12-29T06:40:27;9.10;99.90
16736;DHT22;17990;49.548;9.730;2023-12-29T06:42:54;9.10;99.90
16736;DHT22;17990;49.548;9.730;2023-12-29T06:45:21;9.20;99.90
16736;DHT22;17990;49.548;9.730;2023-12-29T06:47:48;9.30;99.90
16736;DHT22;17990;49.548;9.730;2023-12-29T06:50:14;9.30;99.90
16736;DHT22;17990;49.548;9.730;2023-12-29T06:52:41;9.40;99.90
16736;DHT22;17990;49.548;9.730;2023-12-29T06:55:08;9.40;99.90
16736;DHT22;17990;49.548;9.730;2023-12-29T06:57:36;9.50;99.90
16736;DHT22;17990;49.548;9.730;2023-12-29T07:00:04;9.50;99.90
16736;DHT22;17990;49.548;9.730;2023-12-29T07:02:32;9.50;99.90
16736;DHT22;17990;49.548;9.730;2023-12-29T07:04:58;9.60;99.90
16736;DHT22;17990;49.548;9.730;2023-12-29T07:07:25;9.60;99.90
16736;DHT22;17990;49.548;9.730;2023-12-29T07:09:52;9.60;99.90
16736;DHT22;17990;49.548;9.730;2023-12-29T07:12:18;9.70;99.90
16736;DHT22;17990;49.548;9.730;2023-12-29T07:14:46;9.70;99.90
16736;DHT22;17990;49.548;9.730;2023-12-29T07:17:13;9.70;99.90
16736;DHT22;17990;49.548;9.730;2023-12-29T07:19:40;9.70;99.90
16736;DHT22;17990;49.548;9.730;2023-12-29T07:22:06;9.70;99.90
16736;DHT22;17990;49.548;9.730;2023-12-29T07:24:33;9.70;99.90
16736;DHT22;17990;49.548;9.730;2023-12-29T07:27:00;9.70;99.90
16736;DHT22;17990;49.548;9.730;2023-12-29T07:29:27;9.70;99.90
16736;DHT22;17990;49.548;9.730;2023-12-29T07:31:55;9.70;99.90
16736;DHT22;17990;49.548;9.730;2023-12-29T07:34:22;9.70;99.90
16736;DHT22;17990;49.548;9.730;2023-12-29T07:36:48;9.70;99.90
16736;DHT22;17990;49.548;9.730;2023-12-29T07:39:15;9.70;99.90
16736;DHT22;17990;49.548;9.730;2023-12-29T07:41:42;9.80;99.90
16736;DHT22;17990;49.548;9.730;2023-12-29T07:44:10;9.80;99.90
16736;DHT22;17990;49.548;9.730;2023-12-29T07:46:37;9.80;99.90
16736;DHT22;17990;49.548;9.730;2023-12-29T07:49:05;9.80;99.90
16736;DHT22;17990;49.548;9.730;2023-12-29T07:51:32;9.80;99.90
16736;DHT22;17990;49.548;9.730;2023-12-29T07:53:59;9.80;99.90
16736;DHT22;17990;49.548;9.730;2023-12-29T07:56:26;9.80;99.90
16736;DHT22;17990;49.548;9.730;2023-12-29T07:58:52;9.80;99.90
16736;DHT22;17990;49.548;9.730;2023-12-29T08:01:19;9.80;99.90
16736;DHT22;17990;49.548;9.730;2023-12-29T08:03:46;9.90;99.90
16736;DHT22;17990;49.548;9.730;2023-12-29T08:06:14;9.90;99.90
16736;DHT22;17990;49.548;9.730;2023-12-29T08:08:41;9.90;99.90
16736;DHT22;17990;49.548;9.730;2023-12-29T08:11:13;9.90;99.90
16736;DHT22;17990;49.548;9.730;2023-12-29T08:13:40;9.90;99.90
16736;DHT22;17990;49.548;9.730;2023-12-29T08:16:07;9.90;99.90
16736;DHT22;17990;49.548;9.730;2023-12-29T08:18:34;9.90;99.90
16736;DHT22;17990;49.548;9.730;2023-12-29T08:21:01;9.90;99.90
16736;DHT22;17990;49.548;9.730;2023-12-29T08:23:29;9.90;99.90
16736;DHT22;17990;49.548;9.730;2023-12-29T08:25:56;9.90;99.90
16736;DHT22;17990;49.548;9.730;2023-12-29T08:28:23;9.90;99.90
16736;DHT22;17990;49.548;9.730;2023-12-29T08:30:50;10.00;99.90
16736;DHT22;17990;49.548;9.730;2023-12-29T08:33:17;10.00;99.90
16736;DHT22;17990;49.548;9.730;2023-12-29T08:35:44;10.00;99.90
16736;DHT22;17990;49.548;9.730;2023-12-29T08:38:11;10.10;99.90
16736;DHT22;17990;49.548;9.730;2023-12-29T08:40:40;10.20;99.90
16736;DHT22;17990;49.548;9.730;2023-12-29T08:43:07;10.30;99.90
16736;DHT22;17990;49.548;9.730;2023-12-29T08:45:33;10.30;99.90
16736;DHT22;17990;49.548;9.730;2023-12-29T08:48:01;10.30;99.90
16736;DHT22;17990;49.548;9.730;2023-12-29T08:50:28;10.30;99.90
16736;DHT22;17990;49.548;9.730;2023-12-29T08:52:55;10.30;99.90
16736;DHT22;17990;49.548;9.730;2023-12-29T08:55:21;10.40;99.90
16736;DHT22;17990;49.548;9.730;2023-12-29T08:57:49;10.40;99.90
16736;DHT22;17990;49.548;9.730;2023-12-29T09:00:16;10.50;99.90
16736;DHT22;17990;49.548;9.730;2023-12-29T09:02:43;10.50;99.90
16736;DHT22;17990;49.548;9.730;2023-12-29T09:05:10;10.60;99.90
16736;DHT22;17990;49.548;9.730;2023-12-29T09:07:37;10.70;99.90
16736;DHT22;17990;49.548;9.730;2023-12-29T09:10:04;10.80;99.90
16736;DHT22;17990;49.548;9.730;2023-12-29T09:12:33;11.00;99.90
16736;DHT22;17990;49.548;9.730;2023-12-29T09:15:01;11.20;99.90
16736;DHT22;17990;49.548;9.730;2023-12-29T09:17:28;11.20;99.90
16736;DHT22;17990;49.548;9.730;2023-12-29T09:19:55;11.20;99.90
16736;DHT22;17990;49.548;9.730;2023-12-29T09:22:22;11.30;99.90
16736;DHT22;17990;49.548;9.730;2023-12-29T09:24:48;11.20;99.90
16736;DHT22;17990;49.548;9.730;2023-12-29T09:27:15;11.30;99.90
16736;DHT22;17990;49.548;9.730;2023-12-29T09:29:42;11.40;99.90
16736;DHT22;17990;49.548;9.730;2023-12-29T09:32:11;11.40;99.90
16736;DHT22;17990;49.548;9.730;2023-12-29T09:34:37;11.50;99.90
16736;DHT22;17990;49.548;9.730;2023-12-29T09:37:04;11.70;99.90
16736;DHT22;17990;49.548;9.730;2023-12-29T09:39:31;11.80;99.90
16736;DHT22;17990;49.548;9.730;2023-12-29T09:41:59;12.00;99.90
16736;DHT22;17990;49.548;9.730;2023-12-29T09:44:28;12.00;99.90
16736;DHT22;17990;49.548;9.730;2023-12-29T09:46:55;12.00;99.90
16736;DHT22;17990;49.548;9.730;2023-12-29T09:49:25;12.10;99.90
16736;DHT22;17990;49.548;9.730;2023-12-29T09:51:53;12.10;99.90
16736;DHT22;17990;49.548;9.730;2023-12-29T09:54:20;12.10;99.90
16736;DHT22;17990;49.548;9.730;2023-12-29T09:56:49;12.10;99.90
16736;DHT22;17990;49.548;9.730;2023-12-29T09:59:16;12.10;99.90
16736;DHT22;17990;49.548;9.730;2023-12-29T10:01:45;12.00;99.90
16736;DHT22;17990;49.548;9.730;2023-12-29T10:04:12;11.90;99.90
16736;DHT22;17990;49.548;9.730;2023-12-29T10:06:44;11.90;99.90
16736;DHT22;17990;49.548;9.730;2023-12-29T10:09:12;11.80;99.90
16736;DHT22;17990;49.548;9.730;2023-12-29T10:11:42;11.80;99.90
16736;DHT22;17990;49.548;9.730;2023-12-29T10:14:21;11.80;99.90
16736;DHT22;17990;49.548;9.730;2023-12-29T10:16:53;11.80;99.90
16736;DHT22;17990;49.548;9.730;2023-12-29T10:19:30;11.70;99.90
16736;DHT22;17990;49.548;9.730;2023-12-29T10:22:02;11.70;99.90
16736;DHT22;17990;49.548;9.730;2023-12-29T10:24:30;11.60;99.90
16736;DHT22;17990;49.548;9.730;2023-12-29T10:26:57;11.60;99.90
16736;DHT22;17990;49.548;9.730;2023-12-29T10:29:24;11.50;99.90
16736;DHT22;17990;49.548;9.730;2023-12-29T10:31:52;11.60;99.90
16736;DHT22;17990;49.548;9.730;2023-12-29T10:34:20;11.60;99.90
16736;DHT22;17990;49.548;9.730;2023-12-29T10:36:53;11.50;99.90
16736;DHT22;17990;49.548;9.730;2023-12-29T10:39:21;11.50;99.90
16736;DHT22;17990;49.548;9.730;2023-12-29T10:41:49;11.60;99.90
16736;DHT22;17990;49.548;9.730;2023-12-29T10:44:16;11.70;99.90
16736;DHT22;17990;49.548;9.730;2023-12-29T10:46:43;11.80;99.90
16736;DHT22;17990;49.548;9.730;2023-12-29T10:49:11;11.80;99.90
16736;DHT22;17990;49.548;9.730;2023-12-29T10:51:38;11.90;99.90
16736;DHT22;17990;49.548;9.730;2023-12-29T10:54:05;12.00;99.90
16736;DHT22;17990;49.548;9.730;2023-12-29T10:56:33;12.00;99.90
16736;DHT22;17990;49.548;9.730;2023-12-29T10:59:01;12.00;99.90
16736;DHT22;17990;49.548;9.730;2023-12-29T11:01:29;12.00;99.90
16736;DHT22;17990;49.548;9.730;2023-12-29T11:04:00;12.00;99.90
16736;DHT22;17990;49.548;9.730;2023-12-29T11:06:29;12.10;99.90
16736;DHT22;17990;49.548;9.730;2023-12-29T11:08:56;12.20;99.90
16736;DHT22;17990;49.548;9.730;2023-12-29T11:11:23;12.40;99.90
16736;DHT22;17990;49.548;9.730;2023-12-29T11:13:53;12.40;99.90
16736;DHT22;17990;49.548;9.730;2023-12-29T11:16:21;12.50;99.90
16736;DHT22;17990;49.548;9.730;2023-12-29T11:18:49;12.60;99.90
16736;DHT22;17990;49.548;9.730;2023-12-29T11:21:16;12.60;99.90
16736;DHT22;17990;49.548;9.730;2023-12-29T11:23:44;12.70;99.90
16736;DHT22;17990;49.548;9.730;2023-12-29T11:26:11;12.80;99.90
16736;DHT22;17990;49.548;9.730;2023-12-29T11:28:39;12.90;99.90
16736;DHT22;17990;49.548;9.730;2023-12-29T11:31:07;12.80;99.90
16736;DHT22;17990;49.548;9.730;2023-12-29T11:33:39;12.90;99.90
16736;DHT22;17990;49.548;9.730;2023-12-29T11:36:11;13.00;99.90
16736;DHT22;17990;49.548;9.730;2023-12-29T11:38:47;13.10;99.90
16736;DHT22;17990;49.548;9.730;2023-12-29T11:41:19;13.20;99.90
16736;DHT22;17990;49.548;9.730;2023-12-29T11:43:56;13.30;99.90
16736;DHT22;17990;49.548;9.730;2023-12-29T11:46:38;13.30;99.90
16736;DHT22;17990;49.548;9.730;2023-12-29T11:49:05;13.30;99.90
16736;DHT22;17990;49.548;9.730;2023-12-29T11:51:34;13.40;99.90
16736;DHT22;17990;49.548;9.730;2023-12-29T11:54:03;13.40;99.90
16736;DHT22;17990;49.548;9.730;2023-12-29T11:56:34;13.40;99.90
16736;DHT22;17990;49.548;9.730;2023-12-29T11:59:18;13.30;99.90
16736;DHT22;17990;49.548;9.730;2023-12-29T12:01:48;13.30;99.90
16736;DHT22;17990;49.548;9.730;2023-12-29T12:04:33;13.30;99.90
16736;DHT22;17990;49.548;9.730;2023-12-29T12:06:59;13.50;99.90
16736;DHT22;17990;49.548;9.730;2023-12-29T12:09:26;13.50;99.90
16736;DHT22;17990;49.548;9.730;2023-12-29T12:11:53;13.40;99.90
16736;DHT22;17990;49.548;9.730;2023-12-29T12:14:48;13.50;99.90
16736;DHT22;17990;49.548;9.730;2023-12-29T12:17:30;13.40;99.90
16736;DHT22;17990;49.548;9.730;2023-12-29T12:19:58;13.60;99.90
16736;DHT22;17990;49.548;9.730;2023-12-29T12:22:25;13.60;99.90
16736;DHT22;17990;49.548;9.730;2023-12-29T12:24:55;13.60;99.90
16736;DHT22;17990;49.548;9.730;2023-12-29T12:27:23;13.60;99.90
16736;DHT22;17990;49.548;9.730;2023-12-29T12:29:52;13.50;99.90
16736;DHT22;17990;49.548;9.730;2023-12-29T12:32:20;13.50;99.90
16736;DHT22;17990;49.548;9.730;2023-12-29T12:34:49;13.40;99.90
16736;DHT22;17990;49.548;9.730;2023-12-29T12:37:19;13.30;99.90
16736;DHT22;17990;49.548;9.730;2023-12-29T12:39:46;13.30;99.90
16736;DHT22;17990;49.548;9.730;2023-12-29T12:42:13;13.10;99.90
16736;DHT22;17990;49.548;9.730;2023-12-29T12:44:42;13.00;99.90
16736;DHT22;17990;49.548;9.730;2023-12-29T12:47:13;13.00;99.90
16736;DHT22;17990;49.548;9.730;2023-12-29T12:49:41;12.90;99.90
16736;DHT22;17990;49.548;9.730;2023-12-29T12:52:10;12.90;99.90
16736;DHT22;17990;49.548;9.730;2023-12-29T12:54:36;12.90;99.90
16736;DHT22;17990;49.548;9.730;2023-12-29T12:57:04;12.90;99.90
16736;DHT22;17990;49.548;9.730;2023-12-29T12:59:32;12.80;99.90
16736;DHT22;17990;49.548;9.730;2023-12-29T13:01:59;12.90;99.90
16736;DHT22;17990;49.548;9.730;2023-12-29T13:04:26;12.90;99.90
16736;DHT22;17990;49.548;9.730;2023-12-29T13:06:53;12.90;99.90
16736;DHT22;17990;49.548;9.730;2023-12-29T13:09:21;12.70;99.90
16736;DHT22;17990;49.548;9.730;2023-12-29T13:11:47;12.50;99.90
16736;DHT22;17990;49.548;9.730;2023-12-29T13:14:21;12.50;99.90
16736;DHT22;17990;49.548;9.730;2023-12-29T13:16:48;12.50;99.90
16736;DHT22;17990;49.548;9.730;2023-12-29T13:19:16;12.50;99.90
16736;DHT22;17990;49.548;9.730;2023-12-29T13:21:46;12.40;99.90
16736;DHT22;17990;49.548;9.730;2023-12-29T13:24:13;12.40;99.90
16736;DHT22;17990;49.548;9.730;2023-12-29T13:26:44;12.40;99.90
16736;DHT22;17990;49.548;9.730;2023-12-29T13:29:12;12.40;99.90
16736;DHT22;17990;49.548;9.730;2023-12-29T13:31:40;12.30;99.90
16736;DHT22;17990;49.548;9.730;2023-12-29T13:34:12;12.20;99.90
16736;DHT22;17990;49.548;9.730;2023-12-29T13:36:42;12.30;99.90
16736;DHT22;17990;49.548;9.730;2023-12-29T13:39:14;12.30;99.90
16736;DHT22;17990;49.548;9.730;2023-12-29T13:41:46;12.20;99.90
16736;DHT22;17990;49.548;9.730;2023-12-29T13:44:14;12.20;99.90
16736;DHT22;17990;49.548;9.730;2023-12-29T13:46:41;12.30;99.90
16736;DHT22;17990;49.548;9.730;2023-12-29T13:49:09;12.20;99.90
16736;DHT22;17990;49.548;9.730;2023-12-29T13:51:36;12.20;99.90
16736;DHT22;17990;49.548;9.730;2023-12-29T13:54:03;12.10;99.90
16736;DHT22;17990;49.548;9.730;2023-12-29T13:56:29;12.10;99.90
16736;DHT22;17990;49.548;9.730;2023-12-29T13:58:57;12.10;99.90
16736;DHT22;17990;49.548;9.730;2023-12-29T14:01:35;12.00;99.90
16736;DHT22;17990;49.548;9.730;2023-12-29T14:04:03;11.90;99.90
16736;DHT22;17990;49.548;9.730;2023-12-29T14:06:38;11.90;99.90
16736;DHT22;17990;49.548;9.730;2023-12-29T14:09:06;11.90;99.90
16736;DHT22;17990;49.548;9.730;2023-12-29T14:11:32;11.80;99.90
16736;DHT22;17990;49.548;9.730;2023-12-29T14:14:02;11.80;99.90
16736;DHT22;17990;49.548;9.730;2023-12-29T14:16:29;11.80;99.90
16736;DHT22;17990;49.548;9.730;2023-12-29T14:18:56;11.80;99.90
16736;DHT22;17990;49.548;9.730;2023-12-29T14:21:26;11.70;99.90
16736;DHT22;17990;49.548;9.730;2023-12-29T14:24:14;11.70;99.90
16736;DHT22;17990;49.548;9.730;2023-12-29T14:26:42;11.50;99.90
16736;DHT22;17990;49.548;9.730;2023-12-29T14:29:13;11.50;99.90
16736;DHT22;17990;49.548;9.730;2023-12-29T14:31:41;11.40;99.90
16736;DHT22;17990;49.548;9.730;2023-12-29T14:34:08;11.30;99.90
16736;DHT22;17990;49.548;9.730;2023-12-29T14:36:36;11.30;99.90
16736;DHT22;17990;49.548;9.730;2023-12-29T14:39:04;11.20;99.90
16736;DHT22;17990;49.548;9.730;2023-12-29T14:41:31;11.10;99.90
16736;DHT22;17990;49.548;9.730;2023-12-29T14:43:59;11.00;99.90
16736;DHT22;17990;49.548;9.730;2023-12-29T14:46:27;10.90;99.90
16736;DHT22;17990;49.548;9.730;2023-12-29T14:48:55;10.80;99.90
16736;DHT22;17990;49.548;9.730;2023-12-29T14:51:23;10.70;99.90
16736;DHT22;17990;49.548;9.730;2023-12-29T14:53:50;10.70;99.90
16736;DHT22;17990;49.548;9.730;2023-12-29T14:56:17;10.60;99.90
16736;DHT22;17990;49.548;9.730;2023-12-29T14:58:44;10.50;99.90
16736;DHT22;17990;49.548;9.730;2023-12-29T15:01:11;10.50;99.90
16736;DHT22;17990;49.548;9.730;2023-12-29T15:03:39;10.40;99.90
16736;DHT22;17990;49.548;9.730;2023-12-29T15:06:06;10.40;99.90
16736;DHT22;17990;49.548;9.730;2023-12-29T15:08:34;10.40;99.90
16736;DHT22;17990;49.548;9.730;2023-12-29T15:11:03;10.30;99.90
16736;DHT22;17990;49.548;9.730;2023-12-29T15:13:30;10.20;99.90
16736;DHT22;17990;49.548;9.730;2023-12-29T15:15:57;10.20;99.90
16736;DHT22;17990;49.548;9.730;2023-12-29T15:18:25;10.20;99.90
16736;DHT22;17990;49.548;9.730;2023-12-29T15:20:53;10.10;99.90
16736;DHT22;17990;49.548;9.730;2023-12-29T15:23:20;10.00;99.90
16736;DHT22;17990;49.548;9.730;2023-12-29T15:25:48;10.00;99.90
16736;DHT22;17990;49.548;9.730;2023-12-29T15:28:15;10.00;99.90
16736;DHT22;17990;49.548;9.730;2023-12-29T15:30:42;10.00;99.90
16736;DHT22;17990;49.548;9.730;2023-12-29T15:33:09;10.10;99.90
16736;DHT22;17990;49.548;9.730;2023-12-29T15:35:36;10.00;99.90
16736;DHT22;17990;49.548;9.730;2023-12-29T15:38:04;10.00;99.90
16736;DHT22;17990;49.548;9.730;2023-12-29T15:40:31;10.10;99.90
16736;DHT22;17990;49.548;9.730;2023-12-29T15:42:58;10.00;99.90